Time;durP1;ratioP1;P1;durP2;ratioP2;P2;SDS_P1;SDS_P2;PMS_P1;PMS_P2;Temp;Humidity;BMP_temperature;BMP_pressure;BME280_temperature;BME280_humidity;BME280_pressure;Samples;Min_cycle;Max_cycle;Signal;HPM_P1;HPM_P2
2023/09/07 00:01:30;;;;;;;0.30;0.30;;;17.80;99.90;;;;;;4989619;28;20054;-73
2023/09/07 00:03:56;;;;;;;0.20;0.20;;;17.70;99.90;;;;;;4984031;28;20046;-72
2023/09/07 00:06:21;;;;;;;0.40;0.40;;;17.70;99.90;;;;;;5000506;28;20399;-72
2023/09/07 00:08:47;;;;;;;0.20;0.20;;;17.70;99.90;;;;;;4987902;28;20185;-72
2023/09/07 00:11:13;;;;;;;0.50;0.50;;;17.70;99.90;;;;;;4985518;28;20042;-73
2023/09/07 00:13:39;;;;;;;0.35;0.35;;;17.70;99.90;;;;;;4984940;28;20042;-73
2023/09/07 00:16:05;;;;;;;0.30;0.30;;;17.70;99.90;;;;;;4994006;28;20066;-73
2023/09/07 00:18:32;;;;;;;0.30;0.30;;;17.60;99.90;;;;;;4973357;28;20050;-73
2023/09/07 00:20:58;;;;;;;0.30;0.30;;;17.60;99.90;;;;;;4968055;28;20174;-73
2023/09/07 00:23:24;;;;;;;0.50;0.50;;;17.60;99.90;;;;;;4972147;28;20470;-73
2023/09/07 00:25:49;;;;;;;0.68;0.68;;;17.60;99.90;;;;;;4967772;28;20051;-73
2023/09/07 00:28:15;;;;;;;0.30;0.30;;;17.50;99.90;;;;;;4961635;28;20046;-72
2023/09/07 00:30:41;;;;;;;0.40;0.40;;;17.50;99.90;;;;;;4959343;28;20104;-73
2023/09/07 00:33:07;;;;;;;0.30;0.30;;;17.50;99.90;;;;;;4979303;28;20062;-72
2023/09/07 00:35:34;;;;;;;0.30;0.30;;;17.50;99.90;;;;;;4962019;28;20042;-73
2023/09/07 00:37:59;;;;;;;0.40;0.35;;;17.50;99.90;;;;;;4964430;28;20065;-73
2023/09/07 00:40:26;;;;;;;0.73;0.73;;;17.50;99.90;;;;;;4988238;28;20046;-72
2023/09/07 00:42:52;;;;;;;0.30;0.30;;;17.40;99.90;;;;;;4978861;28;20874;-73
2023/09/07 00:45:18;;;;;;;0.20;0.20;;;17.40;99.90;;;;;;4966425;28;20042;-73
2023/09/07 00:47:44;;;;;;;0.30;0.30;;;17.40;99.90;;;;;;4984595;28;20045;-73
2023/09/07 00:50:13;;;;;;;0.40;0.40;;;17.40;99.90;;;;;;4966452;28;20046;-73
2023/09/07 00:52:42;;;;;;;0.50;0.50;;;17.30;99.90;;;;;;4969522;28;20047;-73
2023/09/07 00:55:08;;;;;;;0.30;0.30;;;17.30;99.90;;;;;;4987981;28;20050;-73
2023/09/07 00:57:34;;;;;;;0.30;0.30;;;17.20;99.90;;;;;;4987902;28;20554;-72
2023/09/07 01:00:00;;;;;;;0.68;0.68;;;17.20;99.90;;;;;;4974764;28;20090;-73
2023/09/07 01:02:26;;;;;;;0.38;0.38;;;17.10;99.90;;;;;;4977501;28;20134;-73
2023/09/07 01:04:52;;;;;;;0.22;0.22;;;17.10;99.90;;;;;;4969893;28;20054;-73
2023/09/07 01:07:23;;;;;;;0.30;0.30;;;17.10;99.90;;;;;;4975937;28;20176;-72
2023/09/07 01:09:57;;;;;;;0.60;0.60;;;17.00;99.90;;;;;;4971816;28;20150;-73
2023/09/07 01:12:23;;;;;;;0.40;0.40;;;17.00;99.90;;;;;;4970024;28;20081;-73
2023/09/07 01:14:49;;;;;;;0.43;0.43;;;17.00;99.90;;;;;;4968042;28;20077;-72
2023/09/07 01:17:15;;;;;;;0.43;0.43;;;16.90;99.90;;;;;;4984376;28;20141;-72
2023/09/07 01:19:41;;;;;;;0.38;0.38;;;16.90;99.90;;;;;;4963335;28;20058;-72
2023/09/07 01:22:08;;;;;;;0.40;0.40;;;16.90;99.90;;;;;;4970687;28;20073;-72
2023/09/07 01:24:35;;;;;;;0.80;0.40;;;16.80;99.90;;;;;;4974597;28;20061;-75
2023/09/07 01:27:03;;;;;;;0.20;0.20;;;16.90;99.90;;;;;;4966967;28;20653;-72
2023/09/07 01:29:29;;;;;;;1.13;1.02;;;16.80;99.90;;;;;;4989315;28;20093;-72
2023/09/07 01:31:55;;;;;;;0.22;0.22;;;16.70;99.90;;;;;;4971641;28;20148;-73
2023/09/07 01:34:21;;;;;;;0.50;0.50;;;16.70;99.90;;;;;;4971751;28;20081;-72
2023/09/07 01:36:46;;;;;;;0.30;0.30;;;16.70;99.90;;;;;;4984769;28;20596;-73
2023/09/07 01:39:12;;;;;;;0.40;0.40;;;16.60;99.90;;;;;;4973556;28;20042;-73
2023/09/07 01:41:37;;;;;;;0.30;0.30;;;16.60;99.90;;;;;;4958398;28;20759;-72
2023/09/07 01:44:03;;;;;;;0.35;0.35;;;16.60;99.90;;;;;;4973773;28;20042;-73
2023/09/07 01:46:29;;;;;;;0.40;0.40;;;16.50;99.90;;;;;;4962920;28;20050;-73
2023/09/07 01:48:55;;;;;;;0.52;0.52;;;16.50;99.90;;;;;;4979724;28;20143;-73
2023/09/07 01:51:20;;;;;;;0.40;0.40;;;16.50;99.90;;;;;;4985573;28;20042;-72
2023/09/07 01:53:49;;;;;;;0.30;0.30;;;16.40;99.90;;;;;;4984326;28;20048;-72
2023/09/07 01:56:16;;;;;;;0.30;0.30;;;16.40;99.90;;;;;;4975712;28;20050;-72
2023/09/07 01:58:42;;;;;;;0.30;0.30;;;16.40;99.90;;;;;;4965458;28;20050;-72
2023/09/07 02:01:30;;;;;;;0.30;0.30;;;16.40;99.90;;;;;;4967387;28;20054;-72
2023/09/07 02:03:56;;;;;;;0.30;0.30;;;16.30;99.90;;;;;;4972732;28;20050;-72
2023/09/07 02:06:22;;;;;;;0.30;0.30;;;16.40;99.90;;;;;;4971371;28;20119;-72
2023/09/07 02:08:48;;;;;;;0.30;0.30;;;16.40;99.90;;;;;;4986023;28;20555;-73
2023/09/07 02:11:14;;;;;;;0.35;0.35;;;16.30;99.90;;;;;;4973403;28;20046;-72
2023/09/07 02:13:44;;;;;;;0.30;0.30;;;16.30;99.90;;;;;;4967946;28;20047;-72
2023/09/07 02:16:10;;;;;;;0.30;0.30;;;16.30;99.90;;;;;;4972938;28;20054;-72
2023/09/07 02:18:37;;;;;;;0.43;0.43;;;16.20;99.90;;;;;;4977946;28;20053;-73
2023/09/07 02:21:04;;;;;;;0.43;0.43;;;16.20;99.90;;;;;;4976799;28;20073;-73
2023/09/07 02:23:31;;;;;;;0.45;0.45;;;16.20;99.90;;;;;;4990189;28;20502;-73
2023/09/07 02:25:57;;;;;;;0.30;0.30;;;16.20;99.90;;;;;;4983116;28;20471;-72
2023/09/07 02:28:23;;;;;;;0.43;0.43;;;16.20;99.90;;;;;;4989123;28;20407;-72
2023/09/07 02:30:49;;;;;;;0.30;0.30;;;16.10;99.90;;;;;;4987437;28;20085;-73
2023/09/07 02:33:15;;;;;;;0.50;0.50;;;16.10;99.90;;;;;;4991973;28;20073;-72
2023/09/07 02:35:40;;;;;;;0.30;0.30;;;16.10;99.90;;;;;;4983719;28;20050;-72
2023/09/07 02:38:07;;;;;;;0.32;0.32;;;16.10;99.90;;;;;;4988473;28;20046;-72
2023/09/07 02:40:32;;;;;;;0.50;0.50;;;16.10;99.90;;;;;;4977653;28;20418;-73
2023/09/07 02:42:58;;;;;;;0.43;0.43;;;16.10;99.90;;;;;;4987697;28;20042;-73
2023/09/07 02:45:24;;;;;;;0.70;0.70;;;16.00;99.90;;;;;;4992386;28;20132;-72
2023/09/07 02:47:50;;;;;;;0.30;0.30;;;16.00;99.90;;;;;;4990646;28;20046;-74
2023/09/07 02:50:17;;;;;;;0.20;0.20;;;16.00;99.90;;;;;;4985839;28;20092;-72
2023/09/07 02:52:43;;;;;;;0.40;0.40;;;16.00;99.90;;;;;;4994208;28;20089;-72
2023/09/07 02:55:09;;;;;;;0.50;0.50;;;15.90;99.90;;;;;;4990633;28;20077;-72
2023/09/07 02:57:35;;;;;;;0.40;0.40;;;15.90;99.90;;;;;;4990570;28;20129;-72
2023/09/07 03:00:09;;;;;;;0.55;0.55;;;15.90;99.90;;;;;;4989058;28;20046;-72
2023/09/07 03:02:35;;;;;;;0.28;0.28;;;15.90;99.90;;;;;;4988876;28;20042;-72
2023/09/07 03:05:01;;;;;;;0.30;0.30;;;15.80;99.90;;;;;;4996548;28;20058;-72
2023/09/07 03:07:29;;;;;;;0.40;0.40;;;15.80;99.90;;;;;;4988899;28;20061;-72
2023/09/07 03:09:56;;;;;;;0.40;0.40;;;15.80;99.90;;;;;;5000584;28;20100;-72
2023/09/07 03:12:21;;;;;;;0.50;0.50;;;15.80;99.90;;;;;;4993240;28;20553;-72
2023/09/07 03:14:48;;;;;;;0.43;0.43;;;15.80;99.90;;;;;;4989679;28;20042;-72
2023/09/07 03:17:16;;;;;;;0.90;0.85;;;15.80;99.90;;;;;;4987725;28;20132;-72
2023/09/07 03:19:41;;;;;;;0.40;0.40;;;15.80;99.90;;;;;;4980831;28;20133;-74
2023/09/07 03:22:08;;;;;;;0.98;0.88;;;15.80;99.90;;;;;;4989239;28;20129;-72
2023/09/07 03:24:34;;;;;;;0.30;0.30;;;15.80;99.90;;;;;;4978008;28;20496;-72
2023/09/07 03:27:00;;;;;;;0.30;0.30;;;15.80;99.90;;;;;;5000509;28;20052;-72
2023/09/07 03:29:25;;;;;;;0.60;0.60;;;15.70;99.90;;;;;;4983968;28;20047;-74
2023/09/07 03:31:51;;;;;;;0.30;0.30;;;15.70;99.90;;;;;;4984324;28;20049;-72
2023/09/07 03:34:17;;;;;;;0.40;0.40;;;15.70;99.90;;;;;;4995336;28;20049;-72
2023/09/07 03:36:43;;;;;;;0.30;0.30;;;15.70;99.90;;;;;;5000595;28;20057;-74
2023/09/07 03:39:09;;;;;;;0.40;0.40;;;15.70;99.90;;;;;;4984448;28;20502;-72
2023/09/07 03:41:35;;;;;;;0.30;0.30;;;15.60;99.90;;;;;;4998154;28;20050;-72
2023/09/07 03:44:01;;;;;;;0.93;0.85;;;15.60;99.90;;;;;;4990237;28;20062;-72
2023/09/07 03:46:27;;;;;;;0.30;0.30;;;15.60;99.90;;;;;;4990483;28;20072;-72
2023/09/07 03:48:52;;;;;;;0.40;0.40;;;15.60;99.90;;;;;;4993293;28;20407;-72
2023/09/07 03:51:18;;;;;;;0.60;0.60;;;15.50;99.90;;;;;;4982165;28;20038;-72
2023/09/07 03:53:44;;;;;;;0.30;0.30;;;15.50;99.90;;;;;;4988476;28;20034;-72
2023/09/07 03:56:09;;;;;;;0.63;0.63;;;15.50;99.90;;;;;;4994244;28;20438;-72
2023/09/07 03:58:37;;;;;;;0.40;0.40;;;15.40;99.90;;;;;;4990911;28;20124;-72
2023/09/07 04:01:03;;;;;;;0.40;0.40;;;15.40;99.90;;;;;;4980431;28;20102;-74
2023/09/07 04:03:29;;;;;;;0.30;0.30;;;15.40;99.90;;;;;;4995699;28;20267;-72
2023/09/07 04:05:54;;;;;;;0.38;0.38;;;15.40;99.90;;;;;;5003080;28;20052;-72
2023/09/07 04:08:20;;;;;;;0.50;0.50;;;15.30;99.90;;;;;;4982381;28;20440;-72
2023/09/07 04:10:45;;;;;;;0.30;0.30;;;15.30;99.90;;;;;;4991009;28;20408;-72
2023/09/07 04:13:11;;;;;;;0.30;0.30;;;15.30;99.90;;;;;;4985300;28;20050;-73
2023/09/07 04:15:46;;;;;;;0.40;0.40;;;15.20;99.90;;;;;;4990376;28;20115;-72
2023/09/07 04:18:12;;;;;;;0.50;0.50;;;15.20;99.90;;;;;;4988967;28;20041;-72
2023/09/07 04:20:41;;;;;;;0.30;0.30;;;15.10;99.90;;;;;;4985826;28;20053;-72
2023/09/07 04:23:07;;;;;;;0.43;0.43;;;15.20;99.90;;;;;;4984871;28;20888;-74
2023/09/07 04:25:32;;;;;;;2.67;0.47;;;15.10;99.90;;;;;;4984444;28;20050;-72
2023/09/07 04:27:58;;;;;;;0.32;0.32;;;15.10;99.90;;;;;;4992028;28;20050;-72
2023/09/07 04:30:24;;;;;;;0.30;0.30;;;15.00;99.90;;;;;;4984886;28;20739;-73
2023/09/07 04:32:50;;;;;;;0.32;0.32;;;15.00;99.90;;;;;;4982891;28;20054;-75
2023/09/07 04:35:15;;;;;;;0.43;0.43;;;15.00;99.90;;;;;;4989351;28;20053;-73
2023/09/07 04:37:45;;;;;;;0.30;0.30;;;15.00;99.90;;;;;;4987347;28;20037;-75
2023/09/07 04:40:10;;;;;;;0.32;0.32;;;15.00;99.90;;;;;;4995040;28;20061;-73
2023/09/07 04:42:38;;;;;;;0.35;0.35;;;14.90;99.90;;;;;;4995955;28;20065;-73
2023/09/07 04:45:05;;;;;;;0.20;0.20;;;14.90;99.90;;;;;;4990113;28;20045;-75
2023/09/07 04:47:31;;;;;;;0.20;0.20;;;14.90;99.90;;;;;;4988420;28;20041;-75
2023/09/07 04:49:57;;;;;;;0.30;0.30;;;14.80;99.90;;;;;;4986699;28;20316;-74
2023/09/07 04:52:23;;;;;;;0.20;0.20;;;14.80;99.90;;;;;;4993189;28;20056;-75
2023/09/07 04:54:48;;;;;;;0.35;0.35;;;14.90;99.90;;;;;;4989330;28;20151;-75
2023/09/07 04:57:17;;;;;;;0.45;0.45;;;14.80;99.90;;;;;;5007441;28;20064;-75
2023/09/07 04:59:43;;;;;;;0.30;0.30;;;14.80;99.90;;;;;;4988549;28;20148;-75
2023/09/07 05:02:09;;;;;;;0.32;0.32;;;14.80;99.90;;;;;;4986572;28;20443;-75
2023/09/07 05:04:34;;;;;;;0.22;0.22;;;14.80;99.90;;;;;;4984042;28;20065;-75
2023/09/07 05:07:00;;;;;;;0.40;0.40;;;14.80;99.90;;;;;;4984328;28;20136;-75
2023/09/07 05:09:28;;;;;;;0.40;0.40;;;14.70;99.90;;;;;;4983804;28;20042;-75
2023/09/07 05:11:54;;;;;;;0.30;0.30;;;14.70;99.90;;;;;;4990879;28;20458;-75
2023/09/07 05:14:20;;;;;;;0.30;0.30;;;14.70;99.90;;;;;;5005037;28;20072;-75
2023/09/07 05:16:46;;;;;;;0.40;0.40;;;14.80;99.90;;;;;;5000982;28;20058;-76
2023/09/07 05:19:11;;;;;;;0.98;0.90;;;14.80;99.90;;;;;;4998877;28;20057;-75
2023/09/07 05:21:37;;;;;;;0.20;0.20;;;14.80;99.90;;;;;;4989932;28;20038;-75
2023/09/07 05:24:03;;;;;;;0.50;0.50;;;14.80;99.90;;;;;;4984739;28;20049;-75
2023/09/07 05:26:29;;;;;;;0.30;0.30;;;14.90;99.90;;;;;;4994478;28;20041;-75
2023/09/07 05:28:55;;;;;;;0.30;0.30;;;14.90;99.90;;;;;;4985490;28;20154;-75
2023/09/07 05:31:20;;;;;;;0.40;0.40;;;15.00;99.90;;;;;;4979620;28;20042;-75
2023/09/07 05:33:46;;;;;;;0.32;0.32;;;15.00;99.90;;;;;;5001477;28;20768;-75
2023/09/07 05:36:12;;;;;;;0.10;0.10;;;15.10;99.90;;;;;;4987737;28;20038;-75
2023/09/07 05:38:37;;;;;;;0.30;0.30;;;15.20;99.90;;;;;;4990743;28;20053;-75
2023/09/07 05:41:03;;;;;;;0.50;0.50;;;15.30;99.90;;;;;;5004238;28;20100;-75
2023/09/07 05:43:29;;;;;;;0.40;0.40;;;15.30;99.90;;;;;;5005999;28;20092;-75
2023/09/07 05:45:55;;;;;;;0.30;0.30;;;15.40;99.90;;;;;;4989294;28;20053;-75
2023/09/07 05:48:20;;;;;;;0.30;0.30;;;15.40;99.90;;;;;;5005000;28;20038;-74
2023/09/07 05:50:46;;;;;;;0.28;0.28;;;15.50;99.90;;;;;;4987241;28;20061;-75
2023/09/07 05:53:11;;;;;;;0.30;0.30;;;15.60;99.90;;;;;;4998988;28;20042;-75
2023/09/07 05:55:37;;;;;;;0.40;0.40;;;15.70;99.90;;;;;;5005272;28;20100;-74
2023/09/07 05:58:08;;;;;;;0.40;0.40;;;15.80;99.90;;;;;;4984442;28;20093;-74
2023/09/07 06:00:39;;;;;;;0.40;0.40;;;15.90;99.90;;;;;;4982182;28;20100;-75
2023/09/07 06:03:05;;;;;;;0.40;0.40;;;15.90;99.90;;;;;;4985827;28;20058;-74
2023/09/07 06:05:31;;;;;;;0.50;0.50;;;16.00;99.90;;;;;;5004334;28;20120;-75
2023/09/07 06:07:57;;;;;;;0.40;0.40;;;16.10;99.90;;;;;;4990684;28;20068;-75
2023/09/07 06:10:23;;;;;;;0.50;0.50;;;16.20;99.90;;;;;;4977853;28;20110;-75
2023/09/07 06:12:49;;;;;;;0.35;0.35;;;16.30;99.90;;;;;;4983690;28;20826;-75
2023/09/07 06:15:15;;;;;;;0.40;0.40;;;16.30;99.90;;;;;;4989935;28;20064;-75
2023/09/07 06:17:40;;;;;;;0.40;0.40;;;16.40;99.90;;;;;;4988408;28;20045;-75
2023/09/07 06:20:07;;;;;;;0.20;0.20;;;16.40;99.90;;;;;;4976680;28;20054;-75
2023/09/07 06:22:32;;;;;;;0.30;0.30;;;16.50;99.90;;;;;;4988775;28;20061;-74
2023/09/07 06:24:58;;;;;;;0.25;0.25;;;16.60;99.90;;;;;;4995909;28;20046;-74
2023/09/07 06:27:23;;;;;;;0.40;0.40;;;16.60;99.90;;;;;;4993444;28;20073;-74
2023/09/07 06:29:50;;;;;;;0.80;0.75;;;16.60;99.90;;;;;;5006387;28;20288;-74
2023/09/07 06:32:16;;;;;;;0.40;0.40;;;16.70;99.90;;;;;;4997846;28;20181;-74
2023/09/07 06:34:42;;;;;;;0.35;0.35;;;16.80;99.90;;;;;;4986097;28;20034;-74
2023/09/07 06:37:08;;;;;;;0.43;0.43;;;16.90;99.90;;;;;;4990059;28;20042;-74
2023/09/07 06:39:36;;;;;;;0.40;0.40;;;16.90;99.90;;;;;;4990543;28;20049;-74
2023/09/07 06:42:03;;;;;;;0.30;0.30;;;17.00;99.90;;;;;;4996755;28;20056;-74
2023/09/07 06:44:29;;;;;;;0.30;0.30;;;17.00;99.90;;;;;;4991337;28;20104;-73
2023/09/07 06:46:55;;;;;;;0.70;0.70;;;17.20;99.90;;;;;;4989942;28;20049;-74
2023/09/07 06:49:22;;;;;;;0.60;0.60;;;17.20;99.90;;;;;;4989966;28;20053;-73
2023/09/07 06:51:48;;;;;;;0.70;0.70;;;17.30;99.90;;;;;;4988341;28;20120;-75
2023/09/07 06:54:13;;;;;;;0.93;0.93;;;17.40;99.90;;;;;;4995855;28;20133;-74
2023/09/07 06:56:39;;;;;;;0.63;0.63;;;17.60;99.90;;;;;;4987390;28;20124;-74
2023/09/07 06:59:05;;;;;;;1.27;0.98;;;17.70;99.90;;;;;;4998473;28;20050;-74
2023/09/07 07:01:31;;;;;;;0.70;0.70;;;17.90;99.90;;;;;;5007153;28;20034;-74
2023/09/07 07:03:57;;;;;;;0.90;0.90;;;18.10;99.90;;;;;;4997670;28;20046;-74
2023/09/07 07:06:23;;;;;;;0.98;0.98;;;18.30;99.90;;;;;;4988715;28;20046;-74
2023/09/07 07:08:48;;;;;;;2.08;1.95;;;18.50;99.90;;;;;;4990394;28;20047;-74
2023/09/07 07:11:14;;;;;;;0.80;0.80;;;18.80;99.90;;;;;;4996693;28;20521;-74
2023/09/07 07:13:40;;;;;;;1.08;1.02;;;19.00;99.90;;;;;;4983122;28;20049;-74
2023/09/07 07:16:06;;;;;;;0.80;0.80;;;19.30;99.90;;;;;;4990360;28;20045;-74
2023/09/07 07:18:32;;;;;;;0.88;0.85;;;19.60;99.90;;;;;;4987764;28;20081;-74
2023/09/07 07:20:57;;;;;;;0.50;0.50;;;19.80;99.90;;;;;;4982333;28;20057;-74
2023/09/07 07:23:23;;;;;;;1.05;1.05;;;20.10;99.90;;;;;;4991458;28;20049;-74
2023/09/07 07:25:51;;;;;;;1.00;1.00;;;20.40;99.90;;;;;;4982129;28;20050;-74
2023/09/07 07:28:16;;;;;;;0.65;0.65;;;20.70;99.90;;;;;;4990785;28;20451;-73
2023/09/07 07:30:42;;;;;;;0.55;0.55;;;20.90;99.90;;;;;;4991066;28;20749;-75
2023/09/07 07:33:08;;;;;;;0.93;0.65;;;21.20;99.90;;;;;;4987238;28;20052;-74
2023/09/07 07:35:34;;;;;;;0.55;0.55;;;21.40;99.90;;;;;;4980041;28;20053;-74
2023/09/07 07:38:01;;;;;;;0.80;0.80;;;21.60;99.90;;;;;;4984132;28;20071;-74
2023/09/07 07:40:26;;;;;;;1.95;0.68;;;21.80;99.90;;;;;;4991969;28;20128;-74
2023/09/07 07:42:53;;;;;;;0.57;0.57;;;22.00;99.90;;;;;;4989578;28;20136;-74
2023/09/07 07:45:20;;;;;;;0.38;0.35;;;22.10;99.90;;;;;;4989267;28;20510;-75
2023/09/07 07:47:46;;;;;;;0.60;0.60;;;22.20;99.90;;;;;;4990870;28;20072;-74
2023/09/07 07:50:12;;;;;;;0.30;0.30;;;22.50;99.90;;;;;;4993167;28;20499;-74
2023/09/07 07:52:38;;;;;;;0.30;0.30;;;22.70;99.90;;;;;;4994369;28;20041;-74
2023/09/07 07:55:04;;;;;;;0.30;0.30;;;22.90;99.90;;;;;;5007390;28;20527;-72
2023/09/07 07:57:31;;;;;;;1.25;1.15;;;23.00;99.90;;;;;;4997062;28;20050;-74
2023/09/07 07:59:57;;;;;;;0.77;0.77;;;23.20;99.90;;;;;;4982992;28;20050;-72
2023/09/07 08:02:24;;;;;;;0.70;0.70;;;23.30;99.90;;;;;;4986551;28;20139;-72
2023/09/07 08:04:50;;;;;;;0.70;0.70;;;23.50;99.90;;;;;;4988988;28;20427;-72
2023/09/07 08:07:16;;;;;;;0.95;0.95;;;23.70;99.90;;;;;;4990428;28;20046;-72
2023/09/07 08:09:42;;;;;;;1.25;1.15;;;23.70;99.90;;;;;;5002376;28;20054;-72
2023/09/07 08:12:08;;;;;;;1.00;1.00;;;23.70;99.90;;;;;;5007757;28;20069;-73
2023/09/07 08:14:35;;;;;;;1.02;1.02;;;23.80;99.90;;;;;;4998410;28;20042;-72
2023/09/07 08:17:01;;;;;;;1.00;1.00;;;24.10;99.90;;;;;;4993656;28;20085;-72
2023/09/07 08:19:27;;;;;;;0.50;0.50;;;24.20;99.90;;;;;;5003877;28;20494;-72
2023/09/07 08:21:53;;;;;;;0.93;0.93;;;24.50;99.90;;;;;;4988063;28;20054;-72
2023/09/07 08:24:19;;;;;;;0.75;0.75;;;24.70;99.90;;;;;;4983763;28;20052;-72
2023/09/07 08:26:45;;;;;;;1.30;1.20;;;24.80;99.90;;;;;;4996177;28;20046;-71
2023/09/07 08:29:10;;;;;;;0.85;0.85;;;25.10;99.90;;;;;;4981937;28;20487;-72
2023/09/07 08:31:40;;;;;;;1.27;1.17;;;25.20;99.90;;;;;;4984306;28;20180;-72
2023/09/07 08:34:09;;;;;;;0.82;0.82;;;25.10;99.90;;;;;;4992468;28;20089;-72
2023/09/07 08:36:35;;;;;;;1.52;1.20;;;25.00;99.90;;;;;;5003917;28;20107;-72
2023/09/07 08:39:05;;;;;;;2.35;1.83;;;25.00;99.90;;;;;;4988500;28;20420;-72
2023/09/07 08:41:46;;;;;;;1.77;1.27;;;25.20;99.90;;;;;;4982907;28;20058;-72
2023/09/07 08:44:17;;;;;;;1.48;1.38;;;25.30;99.90;;;;;;4999840;28;20058;-72
2023/09/07 08:46:44;;;;;;;2.05;1.80;;;25.60;99.90;;;;;;5007534;28;20066;-72
2023/09/07 08:49:11;;;;;;;0.77;0.77;;;25.70;99.90;;;;;;4988942;28;20165;-72
2023/09/07 08:51:37;;;;;;;0.60;0.60;;;25.90;99.90;;;;;;4990818;28;20293;-72
2023/09/07 08:54:07;;;;;;;0.50;0.50;;;26.10;99.90;;;;;;4998000;28;20463;-72
2023/09/07 08:56:33;;;;;;;1.75;1.65;;;26.40;99.90;;;;;;4985400;28;20069;-72
2023/09/07 08:58:59;;;;;;;1.70;1.60;;;26.50;99.90;;;;;;4998934;28;20129;-72
2023/09/07 09:01:25;;;;;;;1.00;1.00;;;26.70;99.90;;;;;;4987005;28;20115;-72
2023/09/07 09:03:51;;;;;;;1.27;1.27;;;26.70;99.90;;;;;;4982342;28;20487;-72
2023/09/07 09:06:20;;;;;;;1.05;0.95;;;26.70;99.90;;;;;;4986493;28;20062;-72
2023/09/07 09:08:56;;;;;;;0.75;0.75;;;26.90;99.90;;;;;;4983020;28;20054;-73
2023/09/07 09:11:23;;;;;;;1.53;1.43;;;27.20;99.90;;;;;;4978169;28;20042;-72
2023/09/07 09:13:51;;;;;;;1.13;0.70;;;27.20;99.90;;;;;;4988707;28;20050;-73
2023/09/07 09:16:16;;;;;;;1.65;1.55;;;27.30;99.90;;;;;;5005905;28;20132;-73
2023/09/07 09:18:54;;;;;;;0.90;0.90;;;27.40;99.90;;;;;;4978922;28;20137;-73
2023/09/07 09:21:22;;;;;;;1.15;1.15;;;27.40;99.90;;;;;;4987345;28;20133;-73
2023/09/07 09:23:52;;;;;;;1.38;1.27;;;27.50;99.90;;;;;;4989952;28;20050;-73
2023/09/07 09:26:19;;;;;;;4.35;1.40;;;27.70;99.90;;;;;;4991342;28;20049;-73
2023/09/07 09:28:45;;;;;;;4.65;1.17;;;27.70;99.90;;;;;;4994978;28;20537;-72
2023/09/07 09:31:14;;;;;;;0.70;0.70;;;27.80;99.90;;;;;;4984190;28;20412;-73
2023/09/07 09:33:41;;;;;;;0.73;0.73;;;27.90;99.90;;;;;;5005043;28;20411;-72
2023/09/07 09:36:07;;;;;;;1.10;1.08;;;28.00;99.90;;;;;;4989946;28;20054;-73
2023/09/07 09:38:34;;;;;;;0.98;0.98;;;28.00;99.90;;;;;;4988813;28;20097;-73
2023/09/07 09:41:00;;;;;;;0.80;0.80;;;28.10;99.90;;;;;;4988225;28;20077;-71
2023/09/07 09:43:26;;;;;;;1.30;1.25;;;28.30;99.90;;;;;;4983340;28;20321;-72
2023/09/07 09:45:52;;;;;;;2.07;1.37;;;28.30;99.90;;;;;;4976904;28;20042;-72
2023/09/07 09:48:22;;;;;;;0.68;0.68;;;28.30;99.90;;;;;;4982160;28;20530;-72
2023/09/07 09:50:49;;;;;;;5.93;1.45;;;28.30;99.90;;;;;;5006255;28;20049;-72
2023/09/07 09:53:20;;;;;;;3.10;1.80;;;28.30;99.90;;;;;;4991294;28;20080;-72
2023/09/07 09:55:52;;;;;;;1.73;1.63;;;28.20;99.90;;;;;;5010959;28;20061;-72
2023/09/07 09:58:18;;;;;;;0.68;0.68;;;28.30;99.90;;;;;;5011428;28;20088;-72
2023/09/07 10:00:50;;;;;;;4.78;1.25;;;28.50;99.90;;;;;;4993018;28;20089;-72
2023/09/07 10:03:32;;;;;;;1.38;1.27;;;28.70;99.90;;;;;;4992113;28;20048;-72
2023/09/07 10:06:22;;;;;;;1.25;1.17;;;28.70;99.90;;;;;;5009179;28;20100;-72
2023/09/07 10:08:59;;;;;;;1.50;1.50;;;28.70;99.90;;;;;;5010241;28;20054;-72
2023/09/07 10:11:37;;;;;;;1.52;1.42;;;28.70;99.90;;;;;;4989629;28;20124;-72
2023/09/07 10:14:04;;;;;;;1.25;1.15;;;28.80;99.90;;;;;;5000799;28;20053;-72
2023/09/07 10:16:44;;;;;;;2.05;1.95;;;28.90;99.90;;;;;;4989656;28;20054;-72
2023/09/07 10:19:24;;;;;;;1.67;1.58;;;29.00;99.90;;;;;;4994413;28;20530;-72
2023/09/07 10:21:52;;;;;;;1.23;1.20;;;29.10;99.90;;;;;;5006495;28;20047;-72
2023/09/07 10:24:35;;;;;;;1.08;1.08;;;29.10;99.90;;;;;;4994755;28;20137;-76
2023/09/07 10:27:06;;;;;;;1.00;1.00;;;29.00;99.90;;;;;;4990473;28;20133;-74
2023/09/07 10:29:46;;;;;;;1.80;1.70;;;29.00;99.90;;;;;;4992185;28;20056;-72
2023/09/07 10:32:14;;;;;;;0.85;0.85;;;29.10;99.90;;;;;;4980511;28;20047;-72
2023/09/07 10:34:43;;;;;;;1.58;1.48;;;29.20;99.90;;;;;;4992125;28;20692;-72
2023/09/07 10:37:14;;;;;;;1.10;1.10;;;29.40;99.90;;;;;;4991891;28;20074;-72
2023/09/07 10:39:44;;;;;;;3.40;2.33;;;29.60;99.90;;;;;;5007570;28;20505;-72
2023/09/07 10:42:25;;;;;;;1.02;0.93;;;29.60;97.20;;;;;;5002270;28;20054;-73
2023/09/07 10:44:53;;;;;;;2.30;2.10;;;29.50;99.10;;;;;;4989519;28;20050;-72
2023/09/07 10:47:19;;;;;;;4.32;2.08;;;29.60;99.00;;;;;;5007013;28;20149;-72
2023/09/07 10:49:45;;;;;;;3.70;1.90;;;29.70;97.30;;;;;;4986704;28;20144;-72
2023/09/07 10:52:10;;;;;;;0.85;0.85;;;29.80;96.50;;;;;;5004710;28;20049;-72
2023/09/07 10:54:36;;;;;;;1.27;1.27;;;29.90;96.40;;;;;;4986845;28;20057;-72
2023/09/07 10:57:17;;;;;;;0.75;0.75;;;30.00;95.90;;;;;;4988332;28;20407;-72
2023/09/07 10:59:46;;;;;;;1.23;1.23;;;30.00;93.50;;;;;;4982511;28;20137;-72
2023/09/07 11:02:12;;;;;;;1.17;1.13;;;30.10;93.90;;;;;;4985477;28;20522;-72
2023/09/07 11:04:37;;;;;;;1.00;1.00;;;30.10;93.50;;;;;;4991001;28;20046;-72
2023/09/07 11:07:04;;;;;;;1.00;0.82;;;30.20;92.90;;;;;;4992799;28;20061;-72
2023/09/07 11:09:32;;;;;;;1.45;1.35;;;30.20;92.00;;;;;;4997487;28;20547;-72
2023/09/07 11:12:08;;;;;;;0.82;0.82;;;30.30;92.10;;;;;;4990960;28;20049;-73
2023/09/07 11:14:33;;;;;;;1.08;0.98;;;30.20;90.90;;;;;;4987840;28;20049;-72
2023/09/07 11:17:03;;;;;;;2.80;1.75;;;30.20;92.00;;;;;;4987586;28;20061;-73
2023/09/07 11:19:32;;;;;;;1.90;1.80;;;30.10;88.30;;;;;;5000648;28;20051;-73
2023/09/07 11:21:59;;;;;;;0.60;0.60;;;29.90;90.40;;;;;;4987923;28;20597;-72
2023/09/07 11:24:25;;;;;;;1.70;1.60;;;30.00;91.30;;;;;;5008044;28;20407;-72
2023/09/07 11:26:51;;;;;;;1.73;1.63;;;30.00;90.30;;;;;;5008977;28;20057;-73
2023/09/07 11:29:18;;;;;;;1.60;1.50;;;30.00;90.50;;;;;;4992829;28;20045;-73
2023/09/07 11:31:49;;;;;;;2.15;2.05;;;29.90;87.90;;;;;;5004109;28;20103;-73
2023/09/07 11:34:15;;;;;;;2.45;2.35;;;29.80;90.00;;;;;;4996483;28;20093;-72
2023/09/07 11:36:43;;;;;;;1.23;1.23;;;29.70;90.60;;;;;;4981369;28;20042;-72
2023/09/07 11:39:14;;;;;;;1.25;1.15;;;29.90;90.60;;;;;;4988287;28;20633;-72
2023/09/07 11:41:44;;;;;;;1.42;1.33;;;30.10;89.80;;;;;;4996062;28;20041;-73
2023/09/07 11:44:10;;;;;;;0.65;0.65;;;30.10;89.20;;;;;;5004251;28;20103;-72
2023/09/07 11:46:37;;;;;;;3.30;2.95;;;29.90;86.80;;;;;;4989416;28;20037;-72
2023/09/07 11:49:04;;;;;;;0.77;0.77;;;29.90;89.10;;;;;;4985519;28;20492;-72
2023/09/07 11:51:30;;;;;;;1.85;1.75;;;30.00;90.00;;;;;;4990257;28;20443;-72
2023/09/07 11:53:56;;;;;;;1.25;1.25;;;30.20;89.90;;;;;;4989693;28;20080;-72
2023/09/07 11:56:22;;;;;;;0.75;0.75;;;30.30;89.40;;;;;;4987277;28;20070;-73
2023/09/07 11:58:47;;;;;;;1.45;1.38;;;30.50;90.10;;;;;;4987483;28;20109;-73
2023/09/07 12:01:16;;;;;;;1.15;1.15;;;30.60;87.50;;;;;;4984835;28;20056;-73
2023/09/07 12:03:45;;;;;;;1.98;1.88;;;30.70;90.10;;;;;;4987077;28;20495;-72
2023/09/07 12:06:12;;;;;;;0.95;0.95;;;30.50;89.50;;;;;;4981881;28;20050;-72
2023/09/07 12:08:42;;;;;;;0.80;0.80;;;30.60;90.10;;;;;;4968511;28;20042;-72
2023/09/07 12:11:08;;;;;;;0.93;0.90;;;30.50;89.80;;;;;;4997617;28;20104;-72
2023/09/07 12:13:34;;;;;;;2.17;1.48;;;30.50;90.40;;;;;;5006134;28;20046;-73
2023/09/07 12:16:02;;;;;;;1.08;1.08;;;30.50;90.20;;;;;;5002266;28;20498;-72
2023/09/07 12:18:27;;;;;;;1.60;1.50;;;30.50;89.00;;;;;;4989787;28;20054;-72
2023/09/07 12:20:53;;;;;;;1.23;1.23;;;30.60;88.20;;;;;;4986796;28;20054;-72
2023/09/07 12:23:19;;;;;;;1.17;1.17;;;30.70;89.80;;;;;;5004462;28;20486;-73
2023/09/07 12:25:50;;;;;;;1.25;1.25;;;30.70;86.70;;;;;;4991806;28;20089;-73
2023/09/07 12:28:16;;;;;;;1.42;1.33;;;30.70;86.90;;;;;;4997597;28;20057;-72
2023/09/07 12:30:44;;;;;;;0.95;0.95;;;30.80;87.70;;;;;;4991665;28;20042;-72
2023/09/07 12:33:11;;;;;;;1.00;1.00;;;30.80;87.00;;;;;;5006832;28;20049;-73
2023/09/07 12:35:36;;;;;;;1.33;1.25;;;30.90;87.60;;;;;;4981314;28;20447;-72
2023/09/07 12:38:03;;;;;;;1.15;1.15;;;30.80;86.20;;;;;;4997366;28;20050;-72
2023/09/07 12:40:29;;;;;;;0.98;0.98;;;30.80;85.90;;;;;;5006014;28;20052;-72
2023/09/07 12:42:54;;;;;;;2.05;1.95;;;30.70;84.60;;;;;;4993101;28;20045;-73
2023/09/07 12:45:20;;;;;;;1.48;1.48;;;30.60;84.50;;;;;;4987845;28;20052;-72
2023/09/07 12:47:47;;;;;;;0.82;0.82;;;30.60;83.80;;;;;;4993829;28;20061;-73